Time;durP1;ratioP1;P1;durP2;ratioP2;P2;SDS_P1;SDS_P2;PMS_P1;PMS_P2;Temp;Humidity;BMP_temperature;BMP_pressure;BME280_temperature;BME280_humidity;BME280_pressure;Samples;Min_cycle;Max_cycle;Signal;HPM_P1;HPM_P2
2023/02/12 00:01:19;;;;;;;0.38;0.38;;;;;;;20.85;34.47;103780.66;5055353;28;20075;-79
2023/02/12 00:03:45;;;;;;;0.75;0.75;;;;;;;20.83;34.51;103780.78;5061455;28;20119;-78
2023/02/12 00:06:11;;;;;;;1.25;0.70;;;;;;;20.77;34.43;103774.13;5054755;28;20383;-79
2023/02/12 00:08:37;;;;;;;0.60;0.50;;;;;;;20.83;34.45;103786.09;5051492;28;20049;-79
2023/02/12 00:11:11;;;;;;;0.70;0.40;;;;;;;20.73;34.74;103785.91;5062227;28;20047;-78
2023/02/12 00:13:37;;;;;;;0.75;0.65;;;;;;;20.83;34.63;103783.44;5063275;28;20094;-78
2023/02/12 00:16:11;;;;;;;0.47;0.47;;;;;;;20.79;34.60;103779.31;5057013;28;20448;-79
2023/02/12 00:18:37;;;;;;;0.70;0.70;;;;;;;20.87;34.51;103779.59;5057745;28;20050;-79
2023/02/12 00:21:03;;;;;;;0.85;0.70;;;;;;;20.85;34.42;103778.03;5060152;28;20040;-79
2023/02/12 00:23:29;;;;;;;1.17;0.63;;;;;;;20.76;34.45;103776.88;5060499;28;20037;-78
2023/02/12 00:25:54;;;;;;;0.52;0.50;;;;;;;20.78;34.69;103778.47;5060777;28;20048;-79
2023/02/12 00:28:20;;;;;;;0.68;0.52;;;;;;;20.76;34.49;103779.53;5059957;28;20051;-78
2023/02/12 00:30:46;;;;;;;0.63;0.63;;;;;;;20.76;34.61;103780.38;5057568;28;20056;-79
2023/02/12 00:33:11;;;;;;;0.40;0.40;;;;;;;20.73;34.67;103774.47;5059384;28;20058;-79
2023/02/12 00:35:37;;;;;;;0.43;0.43;;;;;;;20.72;34.56;103778.94;5057264;28;20040;-78
2023/02/12 00:38:02;;;;;;;1.00;0.95;;;;;;;20.69;34.59;103776.50;5076702;28;20032;-78
2023/02/12 00:40:28;;;;;;;0.68;0.50;;;;;;;20.77;34.63;103773.28;5056551;28;20363;-79
2023/02/12 00:42:53;;;;;;;0.60;0.60;;;;;;;20.75;34.54;103776.06;5056409;28;20048;-79
2023/02/12 00:45:19;;;;;;;0.73;0.65;;;;;;;20.59;34.69;103758.78;5056885;28;20866;-80
2023/02/12 00:47:45;;;;;;;0.85;0.80;;;;;;;20.69;34.64;103776.50;5061661;28;20036;-78
2023/02/12 00:50:10;;;;;;;0.52;0.40;;;;;;;20.73;34.72;103780.63;5051373;28;20060;-79
2023/02/12 00:52:36;;;;;;;0.60;0.60;;;;;;;20.71;34.38;103777.25;5064540;28;20063;-78
2023/02/12 00:55:03;;;;;;;0.68;0.60;;;;;;;20.72;34.40;103775.44;5066815;28;20076;-79
2023/02/12 00:57:28;;;;;;;0.95;0.68;;;;;;;20.70;34.74;103782.66;5062742;28;20033;-79
2023/02/12 00:59:55;;;;;;;0.70;0.57;;;;;;;20.62;34.69;103779.72;5060392;28;20044;-79
2023/02/12 01:02:22;;;;;;;0.70;0.70;;;;;;;20.69;34.55;103773.88;5064172;28;20089;-79
2023/02/12 01:04:47;;;;;;;1.02;0.70;;;;;;;20.68;34.68;103782.78;5059351;28;20048;-79
2023/02/12 01:07:13;;;;;;;0.60;0.60;;;;;;;20.62;34.51;103766.47;5075758;28;20032;-79
2023/02/12 01:09:39;;;;;;;0.68;0.50;;;;;;;20.69;34.49;103783.63;5059736;28;20822;-78
2023/02/12 01:12:05;;;;;;;1.00;0.80;;;;;;;20.65;34.49;103783.00;5061569;28;20045;-79
2023/02/12 01:14:30;;;;;;;0.63;0.63;;;;;;;20.67;34.62;103778.44;5061751;28;20546;-78
2023/02/12 01:16:57;;;;;;;0.55;0.50;;;;;;;20.57;34.73;103784.53;5060321;28;20394;-78
2023/02/12 01:19:22;;;;;;;0.95;0.57;;;;;;;20.61;34.73;103786.81;5056326;28;20044;-79
2023/02/12 01:21:48;;;;;;;0.52;0.50;;;;;;;20.68;34.66;103790.72;5057855;28;20051;-79
2023/02/12 01:24:14;;;;;;;0.68;0.60;;;;;;;20.71;34.54;103790.47;5060317;28;20028;-78
2023/02/12 01:26:39;;;;;;;0.90;0.90;;;;;;;20.67;34.71;103790.84;5062925;28;20033;-78
2023/02/12 01:29:06;;;;;;;0.65;0.60;;;;;;;20.60;34.69;103790.44;5059387;28;20049;-78
2023/02/12 01:31:36;;;;;;;0.55;0.55;;;;;;;20.61;34.60;103789.47;5061427;28;20131;-78
2023/02/12 01:34:03;;;;;;;0.60;0.60;;;;;;;20.57;34.64;103784.53;5058562;28;20037;-79
2023/02/12 01:36:31;;;;;;;0.68;0.63;;;;;;;20.54;34.74;103782.09;5064304;28;20517;-78
2023/02/12 01:38:58;;;;;;;0.80;0.68;;;;;;;20.57;34.61;103792.47;5052383;28;20133;-78
2023/02/12 01:41:26;;;;;;;0.70;0.60;;;;;;;20.60;34.48;103784.28;5045640;28;20040;-79
2023/02/12 01:44:04;;;;;;;1.02;0.70;;;;;;;20.58;34.86;103788.84;5052791;28;20182;-79
2023/02/12 01:46:30;;;;;;;1.40;0.70;;;;;;;20.64;34.60;103796.34;5060325;28;20059;-79
2023/02/12 01:48:55;;;;;;;0.50;0.40;;;;;;;20.59;34.62;103788.72;5058711;28;20386;-79
2023/02/12 01:51:23;;;;;;;0.65;0.50;;;;;;;20.58;34.65;103795.00;5058769;28;20029;-79
2023/02/12 01:53:53;;;;;;;0.45;0.45;;;;;;;20.48;34.71;103781.59;5058207;28;20055;-79
2023/02/12 01:56:20;;;;;;;0.70;0.52;;;;;;;20.50;34.79;103782.34;5059316;28;20082;-79
2023/02/12 01:58:50;;;;;;;0.65;0.63;;;;;;;20.45;35.00;103778.31;5056937;28;20044;-79
2023/02/12 02:01:22;;;;;;;1.05;0.80;;;;;;;20.49;34.84;103778.00;5057209;28;20047;-78
2023/02/12 02:03:51;;;;;;;0.52;0.50;;;;;;;20.49;34.71;103785.94;5064967;28;20501;-79
2023/02/12 02:06:26;;;;;;;0.88;0.77;;;;;;;20.57;34.72;103782.72;5061555;28;20071;-79
2023/02/12 02:08:52;;;;;;;1.15;0.77;;;;;;;20.56;34.76;103794.25;5060696;28;20056;-79
2023/02/12 02:17:11;;;;;;;0.60;0.60;;;;;;;20.55;34.80;103789.09;5055164;28;20070;-79
2023/02/12 02:19:36;;;;;;;0.43;0.43;;;;;;;20.48;34.92;103781.59;5057672;28;20055;-79
2023/02/12 02:22:23;;;;;;;0.80;0.70;;;;;;;20.50;34.87;103781.50;5062033;28;20036;-78
2023/02/12 02:25:07;;;;;;;0.57;0.57;;;;;;;20.43;35.00;103782.88;5072227;28;20128;-79
2023/02/12 02:28:10;;;;;;;0.68;0.60;;;;;;;20.41;34.92;103766.28;5060636;28;20051;-79
2023/02/12 02:30:44;;;;;;;0.95;0.88;;;;;;;20.46;35.08;103782.66;5077954;28;20052;-79
2023/02/12 02:33:19;;;;;;;1.27;0.90;;;;;;;20.48;34.85;103786.91;5061572;28;20049;-79
2023/02/12 02:35:56;;;;;;;1.25;0.70;;;;;;;20.37;34.95;103786.78;5060687;28;20570;-79
2023/02/12 02:38:37;;;;;;;0.60;0.57;;;;;;;20.51;34.87;103786.66;5057402;28;20029;-79
2023/02/12 02:41:24;;;;;;;0.80;0.50;;;;;;;20.50;34.87;103784.97;5062226;28;20046;-79
2023/02/12 02:43:51;;;;;;;0.85;0.50;;;;;;;20.49;34.80;103783.28;5062642;28;20518;-79
2023/02/12 02:46:25;;;;;;;0.98;0.70;;;;;;;20.50;34.79;103779.69;5056388;28;20055;-79
2023/02/12 02:48:55;;;;;;;0.80;0.80;;;;;;;20.48;34.93;103773.66;5071400;28;20043;-79
2023/02/12 02:51:44;;;;;;;1.00;0.88;;;;;;;20.44;34.96;103772.19;5059459;28;20040;-79
2023/02/12 02:54:18;;;;;;;0.95;0.70;;;;;;;20.43;34.86;103764.34;5062511;28;20446;-79
2023/02/12 02:56:46;;;;;;;0.90;0.52;;;;;;;20.49;34.91;103770.06;5060664;28;20044;-79
2023/02/12 02:59:20;;;;;;;0.43;0.43;;;;;;;20.43;35.08;103770.47;5056911;28;20033;-79
2023/02/12 03:01:55;;;;;;;0.77;0.45;;;;;;;20.45;35.07;103768.56;5058295;28;20194;-79
2023/02/12 03:04:31;;;;;;;1.15;0.80;;;;;;;20.44;35.01;103771.34;5058633;28;20040;-79
2023/02/12 03:07:08;;;;;;;1.35;0.63;;;;;;;20.27;34.94;103754.00;5068593;28;20045;-79
2023/02/12 03:09:37;;;;;;;0.88;0.85;;;;;;;20.41;35.02;103775.06;5067954;28;20044;-79
2023/02/12 03:12:09;;;;;;;0.63;0.63;;;;;;;20.47;35.03;103774.63;5066844;28;20061;-79
2023/02/12 03:14:42;;;;;;;0.55;0.55;;;;;;;20.33;35.00;103765.97;5060215;28;20041;-79
2023/02/12 03:17:15;;;;;;;0.65;0.65;;;;;;;20.44;35.01;103773.97;5060430;28;20093;-79
2023/02/12 03:19:49;;;;;;;0.50;0.50;;;;;;;20.42;34.98;103774.09;5060418;28;20098;-79
2023/02/12 03:22:21;;;;;;;0.98;0.98;;;;;;;20.42;35.13;103770.59;5062134;28;20584;-79
2023/02/12 03:24:49;;;;;;;1.02;0.82;;;;;;;20.42;35.11;103765.31;5060397;28;20028;-79
2023/02/12 03:27:38;;;;;;;1.10;0.88;;;;;;;20.36;35.07;103771.03;5056089;28;20048;-79
2023/02/12 03:30:04;;;;;;;0.80;0.80;;;;;;;20.36;35.13;103768.38;5059762;28;20099;-78
2023/02/12 03:32:40;;;;;;;1.35;1.10;;;;;;;20.40;35.02;103764.53;5061041;28;20032;-80
2023/02/12 03:35:11;;;;;;;1.15;0.93;;;;;;;20.32;35.12;103761.63;5055146;28;20560;-79
2023/02/12 03:37:55;;;;;;;1.00;0.80;;;;;;;20.32;35.18;103770.41;5059949;28;20040;-79
2023/02/12 03:40:46;;;;;;;0.93;0.60;;;;;;;20.37;35.05;103767.44;5059388;28;21169;-79
2023/02/12 03:43:34;;;;;;;1.02;0.60;;;;;;;20.33;35.08;103760.66;5061946;28;20041;-79
2023/02/12 03:46:11;;;;;;;0.60;0.60;;;;;;;20.31;35.13;103768.72;5052601;28;20052;-79
2023/02/12 03:48:36;;;;;;;0.98;0.80;;;;;;;20.36;35.05;103763.09;5059893;28;20050;-78
2023/02/12 03:51:27;;;;;;;1.05;0.93;;;;;;;20.34;35.00;103765.84;5056022;28;20041;-78
2023/02/12 03:53:55;;;;;;;1.02;0.93;;;;;;;20.33;35.00;103763.31;5058076;28;20491;-79
2023/02/12 03:56:49;;;;;;;0.77;0.77;;;;;;;20.28;35.40;103776.03;5053624;28;20052;-79
2023/02/12 03:59:14;;;;;;;1.08;0.85;;;;;;;20.28;35.01;103773.38;5043187;28;20048;-79
2023/02/12 04:01:41;;;;;;;1.15;1.00;;;;;;;20.32;34.93;103770.41;5060344;28;21049;-78
2023/02/12 04:04:08;;;;;;;0.68;0.68;;;;;;;20.28;35.10;103768.09;5060885;28;20040;-79
2023/02/12 04:06:34;;;;;;;1.02;0.70;;;;;;;20.26;35.19;103775.28;5062103;28;20028;-79
2023/02/12 04:09:07;;;;;;;0.63;0.63;;;;;;;20.31;34.97;103770.53;5060158;28;20481;-78
2023/02/12 04:11:33;;;;;;;1.23;0.98;;;;;;;20.26;35.15;103772.63;5059710;28;20123;-78
2023/02/12 04:14:17;;;;;;;0.70;0.70;;;;;;;20.23;35.06;103771.06;5054252;28;20078;-79
2023/02/12 04:16:49;;;;;;;1.02;0.88;;;;;;;20.27;35.00;103772.53;5052605;28;20083;-79
2023/02/12 04:19:23;;;;;;;1.17;0.82;;;;;;;20.23;35.10;103771.06;5054298;28;20044;-79
2023/02/12 04:22:17;;;;;;;1.00;0.90;;;;;;;20.26;35.13;103776.13;5057564;28;20035;-79
2023/02/12 04:25:08;;;;;;;1.35;1.10;;;;;;;20.20;35.15;103780.09;5056895;28;20044;-79
2023/02/12 04:27:46;;;;;;;0.98;0.90;;;;;;;20.18;35.16;103778.50;5058611;28;20035;-78
2023/02/12 04:30:53;;;;;;;1.02;0.82;;;;;;;20.27;35.07;103779.63;5057751;28;20391;-79
2023/02/12 04:33:21;;;;;;;1.10;1.00;;;;;;;20.22;35.09;103775.50;5041755;28;20127;-79
2023/02/12 04:36:07;;;;;;;1.30;1.20;;;;;;;20.24;35.01;103780.69;5060847;28;20183;-79
2023/02/12 04:38:45;;;;;;;0.70;0.70;;;;;;;20.27;35.16;103791.06;5058326;28;20041;-79
2023/02/12 04:41:11;;;;;;;0.80;0.80;;;;;;;20.27;35.13;103787.56;5058847;28;20608;-79
2023/02/12 04:43:37;;;;;;;0.93;0.93;;;;;;;20.22;35.12;103791.41;5055327;28;20041;-79
2023/02/12 04:46:05;;;;;;;0.85;0.77;;;;;;;20.27;35.07;103793.69;5055223;28;20040;-79
2023/02/12 04:48:33;;;;;;;1.05;0.90;;;;;;;20.30;35.05;103788.22;5057635;28;20044;-79
2023/02/12 04:50:59;;;;;;;1.30;0.95;;;;;;;20.29;35.22;103801.53;5060290;28;20900;-79
2023/02/12 04:53:25;;;;;;;0.55;0.52;;;;;;;20.30;35.01;103800.59;5059329;28;20511;-79
2023/02/12 04:55:50;;;;;;;0.63;0.60;;;;;;;20.28;35.09;103798.03;5059154;28;20051;-79
2023/02/12 04:58:17;;;;;;;1.13;0.88;;;;;;;20.21;35.17;103794.16;5055873;28;20121;-79
2023/02/12 05:00:42;;;;;;;0.73;0.73;;;;;;;20.22;35.25;103795.84;5057897;28;21428;-79
2023/02/12 05:03:08;;;;;;;0.68;0.57;;;;;;;20.25;35.08;103800.06;5060841;28;20043;-79
2023/02/12 05:05:33;;;;;;;0.80;0.70;;;;;;;20.23;35.10;103800.19;5059555;28;20059;-79
2023/02/12 05:07:59;;;;;;;0.65;0.65;;;;;;;20.18;35.06;103794.38;5058510;28;20040;-79
2023/02/12 05:10:24;;;;;;;0.50;0.50;;;;;;;20.25;35.03;103798.25;5057881;28;20040;-79
2023/02/12 05:12:54;;;;;;;0.73;0.73;;;;;;;20.16;35.16;103805.06;5062282;28;20048;-80
2023/02/12 05:15:19;;;;;;;1.35;0.77;;;;;;;20.13;35.25;103804.47;5058350;28;20040;-79
2023/02/12 05:17:45;;;;;;;1.35;0.80;;;;;;;20.20;35.28;103803.03;5058623;28;20043;-79
2023/02/12 05:20:11;;;;;;;1.00;0.88;;;;;;;20.14;35.23;103799.06;5053949;28;20040;-79
2023/02/12 05:22:37;;;;;;;1.40;0.82;;;;;;;20.18;35.12;103804.97;5063639;28;20474;-79
2023/02/12 05:25:03;;;;;;;0.60;0.60;;;;;;;20.15;35.28;103805.19;5054437;28;20043;-78
2023/02/12 05:27:28;;;;;;;0.50;0.50;;;;;;;20.18;35.25;103803.16;5057175;28;20056;-79
2023/02/12 05:29:55;;;;;;;0.43;0.43;;;;;;;20.22;35.09;103801.97;5058488;28;20049;-78
2023/02/12 05:32:21;;;;;;;0.60;0.60;;;;;;;20.17;35.24;103805.91;5062469;28;20126;-78
2023/02/12 05:34:47;;;;;;;0.70;0.70;;;;;;;20.15;35.06;103806.03;5054704;28;20041;-79
2023/02/12 05:37:13;;;;;;;0.70;0.70;;;;;;;20.10;35.19;103808.13;5059594;28;20813;-79
2023/02/12 05:39:38;;;;;;;0.60;0.60;;;;;;;20.15;35.15;103816.63;5063364;28;20414;-79
2023/02/12 05:42:04;;;;;;;0.80;0.80;;;;;;;20.17;35.15;103817.34;5061354;28;20041;-78
2023/02/12 05:44:29;;;;;;;0.90;0.73;;;;;;;20.08;35.22;103814.50;5052912;28;20052;-79
2023/02/12 05:46:55;;;;;;;0.70;0.68;;;;;;;20.04;35.35;103811.22;5054338;28;20161;-79
2023/02/12 05:49:21;;;;;;;0.68;0.50;;;;;;;20.06;35.26;103792.59;5062312;28;20047;-79
2023/02/12 05:51:46;;;;;;;0.60;0.60;;;;;;;20.13;35.10;103807.94;5059081;28;20037;-78
2023/02/12 05:54:12;;;;;;;0.73;0.70;;;;;;;20.14;35.15;103806.16;5059809;28;20040;-79
2023/02/12 05:56:43;;;;;;;0.98;0.70;;;;;;;20.05;35.15;103801.50;5057988;28;20382;-79
2023/02/12 05:59:17;;;;;;;0.75;0.75;;;;;;;20.09;35.23;103810.91;5056441;28;20044;-79
2023/02/12 06:01:44;;;;;;;1.33;0.80;;;;;;;20.07;35.22;103818.09;5056539;28;20134;-79
2023/02/12 06:04:14;;;;;;;0.70;0.70;;;;;;;20.06;35.18;103817.25;5058072;28;20098;-79
2023/02/12 06:06:42;;;;;;;0.57;0.57;;;;;;;20.02;35.20;103802.56;5053292;28;20528;-78
2023/02/12 06:09:10;;;;;;;0.75;0.75;;;;;;;20.05;35.29;103817.38;5055406;28;20049;-79
2023/02/12 06:11:36;;;;;;;0.50;0.50;;;;;;;20.03;35.39;103808.69;5059532;28;21053;-79
2023/02/12 06:14:03;;;;;;;0.85;0.70;;;;;;;20.08;35.24;103814.50;5058113;28;20090;-79
2023/02/12 06:16:29;;;;;;;1.27;0.77;;;;;;;20.09;35.24;103827.63;5057370;28;20048;-79
2023/02/12 06:18:55;;;;;;;0.82;0.80;;;;;;;19.95;35.40;103821.63;5061528;28;20032;-79
2023/02/12 06:21:23;;;;;;;0.70;0.70;;;;;;;19.95;35.42;103819.00;5056885;28;20576;-79
2023/02/12 06:23:51;;;;;;;0.60;0.60;;;;;;;19.99;35.37;103825.75;5054026;28;20028;-79
2023/02/12 06:26:16;;;;;;;0.50;0.50;;;;;;;19.98;35.41;103827.56;5059989;28;20040;-79
2023/02/12 06:28:42;;;;;;;0.68;0.68;;;;;;;19.99;35.36;103833.69;5058090;28;20032;-79
2023/02/12 06:31:26;;;;;;;0.60;0.60;;;;;;;19.90;35.57;103843.94;5055168;28;20400;-79
2023/02/12 06:33:53;;;;;;;0.52;0.52;;;;;;;19.99;35.23;103844.25;5057539;28;20037;-79
2023/02/12 06:36:18;;;;;;;0.63;0.63;;;;;;;19.94;35.43;103834.00;5055259;28;20955;-79
2023/02/12 06:38:45;;;;;;;0.85;0.70;;;;;;;19.99;35.31;103846.91;5060730;28;20033;-79
2023/02/12 06:41:10;;;;;;;0.60;0.60;;;;;;;20.04;35.21;103848.28;5057583;28;20378;-78
2023/02/12 06:43:36;;;;;;;0.57;0.57;;;;;;;20.27;34.87;103846.63;5055142;28;20044;-79
2023/02/12 06:46:03;;;;;;;0.60;0.60;;;;;;;21.28;33.37;103853.31;5061590;28;20037;-79
2023/02/12 06:48:29;;;;;;;0.60;0.60;;;;;;;22.81;30.98;103850.03;5061187;28;20048;-78
2023/02/12 06:50:55;;;;;;;0.60;0.60;;;;;;;23.58;29.86;103849.75;5067260;28;20453;-78
2023/02/12 06:53:20;;;;;;;0.50;0.50;;;;;;;23.61;30.11;103854.81;5061923;28;20043;-79
2023/02/12 06:55:46;;;;;;;0.40;0.38;;;;;;;23.43;30.48;103862.53;5063827;28;21391;-78
2023/02/12 06:58:11;;;;;;;0.40;0.40;;;;;;;23.18;30.64;103869.09;5054354;28;20033;-79
2023/02/12 07:00:37;;;;;;;0.50;0.50;;;;;;;22.90;31.20;103865.22;5063450;28;20040;-79
2023/02/12 07:03:02;;;;;;;0.57;0.57;;;;;;;22.70;31.53;103870.47;5064399;28;20047;-78
2023/02/12 07:05:28;;;;;;;0.35;0.35;;;;;;;22.49;31.89;103878.38;5062722;28;20128;-79
2023/02/12 07:07:54;;;;;;;1.13;0.63;;;;;;;22.31;32.41;103886.84;5066000;28;20086;-79
2023/02/12 07:10:19;;;;;;;0.30;0.30;;;;;;;22.20;32.45;103888.66;5074018;28;20048;-79
2023/02/12 07:12:45;;;;;;;0.60;0.32;;;;;;;22.04;33.01;103883.69;5062006;28;20040;-79
2023/02/12 07:15:11;;;;;;;0.43;0.43;;;;;;;21.95;32.92;103885.25;5061998;28;20044;-79
2023/02/12 07:17:37;;;;;;;0.43;0.38;;;;;;;21.86;33.17;103885.13;5058680;28;20059;-79
2023/02/12 07:20:03;;;;;;;0.40;0.40;;;;;;;21.74;33.23;103878.13;5062413;28;20040;-79
2023/02/12 07:22:29;;;;;;;0.40;0.40;;;;;;;21.66;33.47;103889.31;5065689;28;20055;-78
2023/02/12 07:24:54;;;;;;;0.50;0.50;;;;;;;21.63;33.39;103890.41;5059860;28;20037;-79
2023/02/12 07:27:20;;;;;;;0.60;0.60;;;;;;;21.50;33.85;103891.44;5060298;28;20051;-78
2023/02/12 07:29:45;;;;;;;0.60;0.60;;;;;;;21.39;33.88;103897.59;5052108;28;20064;-79
2023/02/12 07:32:11;;;;;;;0.40;0.40;;;;;;;21.30;34.07;103903.56;5059239;28;20049;-79
2023/02/12 07:34:36;;;;;;;0.30;0.30;;;;;;;21.23;34.44;103899.66;5058567;28;20047;-78
2023/02/12 07:37:02;;;;;;;0.25;0.25;;;;;;;21.21;34.54;103897.13;5061104;28;20040;-79
2023/02/12 07:39:27;;;;;;;0.45;0.45;;;;;;;21.11;34.24;103893.47;5057782;28;20064;-79
2023/02/12 07:41:55;;;;;;;0.40;0.40;;;;;;;21.12;34.34;103898.66;5059526;28;20086;-79
2023/02/12 07:44:21;;;;;;;0.35;0.35;;;;;;;21.05;34.51;103904.53;5062190;28;20028;-79
2023/02/12 07:46:48;;;;;;;0.32;0.32;;;;;;;21.00;34.70;103904.84;5058964;28;20051;-79
2023/02/12 07:49:20;;;;;;;0.60;0.60;;;;;;;21.02;34.76;103908.25;5060121;28;20532;-79
2023/02/12 07:51:46;;;;;;;0.35;0.35;;;;;;;20.91;34.82;103917.94;5056366;28;20036;-79
2023/02/12 07:54:12;;;;;;;0.40;0.40;;;;;;;20.90;34.99;103914.44;5059465;28;20464;-79
2023/02/12 07:56:40;;;;;;;0.52;0.50;;;;;;;20.96;34.84;103914.00;5059774;28;20133;-79
2023/02/12 07:59:09;;;;;;;0.30;0.30;;;;;;;20.96;34.79;103913.16;5057356;28;20040;-79
2023/02/12 08:01:37;;;;;;;0.40;0.40;;;;;;;20.88;34.97;103919.03;5064213;28;20033;-78
2023/02/12 08:04:06;;;;;;;0.50;0.40;;;;;;;20.83;34.97;103912.38;5059767;28;20040;-79
2023/02/12 08:06:34;;;;;;;0.50;0.50;;;;;;;20.80;35.05;103916.91;5062540;28;20040;-79
2023/02/12 08:09:02;;;;;;;0.32;0.32;;;;;;;20.85;34.86;103919.25;5058872;28;20386;-79
2023/02/12 08:11:28;;;;;;;0.47;0.47;;;;;;;20.84;35.07;103917.56;5058447;28;20048;-79
2023/02/12 08:13:55;;;;;;;0.25;0.25;;;;;;;20.77;35.10;103917.13;5060179;28;20040;-79
2023/02/12 08:16:22;;;;;;;0.40;0.40;;;;;;;20.88;34.76;103920.81;5056205;28;20060;-81
2023/02/12 08:18:48;;;;;;;0.45;0.45;;;;;;;20.76;34.97;103922.56;5055966;28;20089;-83
2023/02/12 08:21:17;;;;;;;0.40;0.40;;;;;;;20.76;35.01;103925.19;5062289;28;20063;-83
2023/02/12 08:23:44;;;;;;;0.40;0.40;;;;;;;20.84;34.96;103922.84;5060616;28;20394;-82
2023/02/12 08:26:09;;;;;;;0.30;0.30;;;;;;;20.88;34.65;103926.97;5065528;28;20033;-78
2023/02/12 08:28:36;;;;;;;0.50;0.50;;;;;;;21.37;33.93;103929.50;5064906;28;20039;-82
2023/02/12 08:31:08;;;;;;;0.65;0.65;;;;;;;22.16;33.24;103927.03;5056387;28;20057;-66
2023/02/12 08:33:33;;;;;;;0.50;0.50;;;;;;;22.70;31.91;103927.09;5055611;28;20050;-66
2023/02/12 08:36:04;;;;;;;1.90;0.43;;;;;;;22.70;32.01;103921.78;5058363;28;22194;-66
2023/02/12 08:38:30;;;;;;;0.25;0.25;;;;;;;22.65;32.14;103937.25;5057274;28;20029;-66
2023/02/12 08:41:00;;;;;;;0.38;0.38;;;;;;;22.47;32.43;103942.22;5062635;28;20040;-66
2023/02/12 08:43:26;;;;;;;0.30;0.30;;;;;;;22.21;32.64;103944.28;5059853;28;20438;-66
2023/02/12 08:45:51;;;;;;;0.50;0.50;;;;;;;22.08;32.85;103942.69;5058735;28;20561;-66
2023/02/12 08:48:19;;;;;;;0.52;0.52;;;;;;;21.99;33.26;103941.56;5059099;28;20032;-66
2023/02/12 08:50:45;;;;;;;0.20;0.20;;;;;;;21.88;33.59;103945.03;5059574;28;20139;-66
2023/02/12 08:53:11;;;;;;;0.30;0.30;;;;;;;21.76;33.85;103942.50;5060262;28;20133;-66
2023/02/12 08:55:37;;;;;;;0.10;0.10;;;;;;;21.69;33.65;103940.31;5059577;28;20181;-66
2023/02/12 08:58:02;;;;;;;0.45;0.45;;;;;;;21.63;34.11;103948.75;5059645;28;21758;-65
2023/02/12 09:00:28;;;;;;;0.35;0.35;;;;;;;21.46;33.82;103951.81;5059972;28;20043;-66
2023/02/12 09:02:53;;;;;;;0.50;0.50;;;;;;;21.42;34.14;103956.53;5058248;28;20036;-67
2023/02/12 09:05:19;;;;;;;0.50;0.50;;;;;;;21.34;34.33;103955.38;5056342;28;20090;-66
2023/02/12 09:07:44;;;;;;;0.85;0.70;;;;;;;21.26;34.60;103957.78;5057467;28;20032;-67
2023/02/12 09:10:10;;;;;;;0.55;0.55;;;;;;;21.16;34.59;103954.91;5056722;28;20033;-67
2023/02/12 09:12:35;;;;;;;0.43;0.43;;;;;;;21.11;34.82;103959.72;5054867;28;20062;-66
2023/02/12 09:15:01;;;;;;;0.22;0.22;;;;;;;21.15;34.87;103965.63;5058057;28;20041;-67
2023/02/12 09:17:27;;;;;;;0.47;0.47;;;;;;;21.17;34.72;103964.56;5060342;28;20052;-67
2023/02/12 09:19:53;;;;;;;0.40;0.40;;;;;;;21.10;34.74;103945.63;5060784;28;20021;-66
2023/02/12 09:22:19;;;;;;;0.50;0.50;;;;;;;21.04;34.85;103966.44;5059044;28;20119;-66
2023/02/12 09:24:44;;;;;;;0.57;0.57;;;;;;;21.05;35.01;103958.38;5062014;28;20074;-66
2023/02/12 09:27:10;;;;;;;0.38;0.38;;;;;;;20.83;35.45;103974.13;5055679;28;20398;-66
2023/02/12 09:29:35;;;;;;;0.70;0.70;;;;;;;20.98;35.15;103965.06;5054426;28;20045;-67
2023/02/12 09:32:04;;;;;;;0.35;0.35;;;;;;;20.96;35.05;103968.78;5058410;28;20109;-66
2023/02/12 09:34:32;;;;;;;0.63;0.63;;;;;;;20.88;35.45;103979.94;5055513;28;20045;-66
2023/02/12 09:36:58;;;;;;;0.55;0.55;;;;;;;20.80;35.20;103969.03;5057393;28;20114;-66
2023/02/12 09:39:24;;;;;;;0.55;0.55;;;;;;;20.74;35.50;103972.97;5058022;28;20048;-66
2023/02/12 09:42:15;;;;;;;0.60;0.60;;;;;;;20.73;35.51;103963.34;5055240;28;20041;-66
2023/02/12 09:44:56;;;;;;;0.52;0.52;;;;;;;20.73;35.53;103965.16;5055955;28;20423;-66
2023/02/12 09:47:43;;;;;;;0.50;0.50;;;;;;;20.66;35.67;103971.84;5056488;28;20035;-66
2023/02/12 09:50:37;;;;;;;0.47;0.47;;;;;;;20.78;35.40;103970.94;5057912;28;20094;-66
2023/02/12 09:53:04;;;;;;;0.50;0.50;;;;;;;20.66;36.01;103972.69;5054474;28;20141;-70
2023/02/12 09:55:32;;;;;;;0.60;0.60;;;;;;;20.70;36.37;103973.31;5060023;28;20504;-65
2023/02/12 09:58:03;;;;;;;0.63;0.63;;;;;;;20.60;36.43;103970.47;5054343;28;20049;-65
2023/02/12 10:00:30;;;;;;;1.08;1.08;;;;;;;20.53;36.31;103974.50;5055254;28;20032;-66
2023/02/12 10:03:00;;;;;;;0.55;0.55;;;;;;;20.58;36.31;103980.31;5056196;28;20047;-64
2023/02/12 10:05:28;;;;;;;;;;;;;;;20.51;36.19;103979.91;5056962;28;20467;-65
2023/02/12 10:08:37;;;;;;;0.60;0.60;;;;;;;20.70;36.00;103976.81;5058458;28;19963;-65
2023/02/12 10:11:05;;;;;;;0.60;0.60;;;;;;;20.64;35.93;103974.59;5050042;28;20495;-66
2023/02/12 10:14:16;;;;;;;0.80;0.80;;;;;;;20.84;35.67;103982.94;5054321;28;20055;-66
2023/02/12 10:17:19;;;;;;;0.47;0.47;;;;;;;20.78;35.67;103977.09;5042549;28;20696;-65
2023/02/12 10:19:59;;;;;;;0.80;0.80;;;;;;;20.75;35.79;103985.28;5054113;28;20051;-65
2023/02/12 10:23:03;;;;;;;0.60;0.60;;;;;;;20.48;35.96;103972.19;5065428;28;20040;-65
2023/02/12 10:25:56;;;;;;;0.75;0.75;;;;;;;20.58;36.06;103982.97;5063228;28;20033;-66
2023/02/12 10:28:25;;;;;;;1.23;0.93;;;;;;;20.58;36.03;103984.78;5057896;28;20079;-66
2023/02/12 10:30:58;;;;;;;0.70;0.47;;;;;;;20.58;36.15;103988.25;5062384;28;20064;-66
2023/02/12 10:33:35;;;;;;;0.60;0.60;;;;;;;20.54;36.13;103992.09;5057502;28;20063;-66
2023/02/12 10:36:52;;;;;;;0.77;0.77;;;;;;;20.50;36.29;103995.91;5062853;28;20071;-66
2023/02/12 10:39:18;;;;;;;0.55;0.55;;;;;;;20.36;36.39;103991.56;5034569;28;20580;-66
2023/02/12 10:42:11;;;;;;;0.82;0.80;;;;;;;20.33;36.46;103990.94;5065961;28;20040;-66
2023/02/12 10:44:36;;;;;;;0.52;0.52;;;;;;;20.43;36.41;103992.00;5063277;28;20056;-66
2023/02/12 10:47:02;;;;;;;0.52;0.52;;;;;;;20.39;36.47;103993.13;5053880;28;20494;-66
2023/02/12 10:49:30;;;;;;;0.60;0.60;;;;;;;20.30;36.65;103984.03;5059436;28;20041;-66
2023/02/12 10:52:21;;;;;;;0.60;0.60;;;;;;;20.31;36.38;103996.31;5062234;28;20348;-66
2023/02/12 10:54:50;;;;;;;0.47;0.47;;;;;;;20.38;36.47;103999.38;5060711;28;20048;-66
2023/02/12 10:57:29;;;;;;;0.50;0.50;;;;;;;20.22;36.57;103992.50;5059450;28;20131;-66
2023/02/12 11:00:13;;;;;;;0.52;0.52;;;;;;;20.41;36.29;103994.75;5061806;28;20472;-64
2023/02/12 11:02:57;;;;;;;0.60;0.60;;;;;;;20.44;36.02;103994.53;5060041;28;20051;-65
2023/02/12 11:05:27;;;;;;;0.60;0.60;;;;;;;20.43;36.34;103997.28;5060305;28;20122;-66
2023/02/12 11:07:53;;;;;;;0.60;0.60;;;;;;;20.45;36.11;103996.22;5058247;28;20036;-66
2023/02/12 11:10:28;;;;;;;0.50;0.50;;;;;;;20.38;36.37;103991.44;5058280;28;20040;-66
2023/02/12 11:12:54;;;;;;;2.00;0.65;;;;;;;20.31;36.42;103991.03;5058063;28;20024;-66
2023/02/12 11:15:23;;;;;;;0.50;0.50;;;;;;;20.39;36.41;103995.78;5059464;28;20043;-65
2023/02/12 11:18:09;;;;;;;1.25;0.88;;;;;;;20.54;35.95;103993.91;5057839;28;20127;-65
2023/02/12 11:20:47;;;;;;;0.85;0.80;;;;;;;20.60;35.84;103996.94;5060168;28;20486;-65
2023/02/12 11:23:29;;;;;;;0.60;0.60;;;;;;;20.91;35.30;103989.47;5061995;28;20054;-66
2023/02/12 11:26:01;;;;;;;1.20;0.93;;;;;;;20.92;35.26;103999.09;5064416;28;20025;-65
2023/02/12 11:28:28;;;;;;;0.63;0.63;;;;;;;20.79;35.25;103984.09;5058964;28;20724;-65
2023/02/12 11:30:59;;;;;;;0.50;0.50;;;;;;;20.76;35.43;103986.97;5058535;28;20045;-66
2023/02/12 11:33:29;;;;;;;0.52;0.52;;;;;;;20.73;35.57;103983.69;5057187;28;20364;-66
2023/02/12 11:36:23;;;;;;;0.65;0.65;;;;;;;20.77;35.58;103980.69;5058300;28;20047;-66
2023/02/12 11:38:55;;;;;;;2.03;0.95;;;;;;;20.71;35.54;103969.72;5061258;28;20402;-66
2023/02/12 11:41:36;;;;;;;0.65;0.50;;;;;;;20.61;35.84;103968.66;5060996;28;20724;-65
2023/02/12 11:44:19;;;;;;;0.55;0.55;;;;;;;20.57;35.66;103967.19;5058667;28;20028;-65
2023/02/12 11:46:49;;;;;;;0.90;0.90;;;;;;;20.61;35.83;103972.16;5058702;28;20152;-65
2023/02/12 11:49:19;;;;;;;;;;;;;;;20.66;35.84;103967.41;5062356;28;21598;-66